createdAt,value
2023-04-13T00:00:54.646Z,6.92
2023-04-13T00:03:22.835Z,6.92
2023-04-13T00:05:52.229Z,7.06
2023-04-13T00:08:22.757Z,7.05
2023-04-13T00:10:51.128Z,7.14
2023-04-13T00:13:19.735Z,7.09
2023-04-13T00:15:49.161Z,7.12
2023-04-13T00:18:17.424Z,6.92
2023-04-13T00:20:46.609Z,7.20
2023-04-13T00:23:14.542Z,7.21
2023-04-13T00:25:42.476Z,7.14
2023-04-13T00:29:11.163Z,7.36
2023-04-13T00:31:40.340Z,7.21
2023-04-13T00:34:08.251Z,7.29
2023-04-13T00:36:36.052Z,7.18
2023-04-13T00:39:03.905Z,7.17
2023-04-13T00:41:32.166Z,7.18
2023-04-13T00:44:00.882Z,7.17
2023-04-13T00:46:29.722Z,7.19
2023-04-13T00:49:01.895Z,7.10
2023-04-13T00:51:30.759Z,6.86
2023-04-13T00:53:59.391Z,6.85
2023-04-13T00:56:28.286Z,6.80
2023-04-13T00:58:57.818Z,6.64
2023-04-13T01:01:26.056Z,6.77
2023-04-13T01:03:53.937Z,6.26
2023-04-13T01:06:27.967Z,6.58
2023-04-13T01:09:02.634Z,6.55
2023-04-13T01:11:39.481Z,6.61
2023-04-13T01:14:14.373Z,6.55
2023-04-13T01:16:45.832Z,6.62
2023-04-13T01:19:26.412Z,6.49
2023-04-13T01:21:56.595Z,6.27
2023-04-13T01:24:34.063Z,6.22
2023-04-13T01:27:11.541Z,6.33
2023-04-13T01:29:41.461Z,6.10
2023-04-13T01:32:11.247Z,6.30
2023-04-13T01:34:39.479Z,6.23
2023-04-13T01:37:07.730Z,6.41
2023-04-13T01:39:37.455Z,6.37
2023-04-13T01:42:05.296Z,6.34
2023-04-13T01:44:35.923Z,6.44
2023-04-13T01:47:16.437Z,6.39
2023-04-13T01:49:52.518Z,6.33
2023-04-13T01:52:21.239Z,6.41
2023-04-13T01:54:52.219Z,6.33
2023-04-13T01:57:20.994Z,6.45
2023-04-13T01:59:48.707Z,6.27
2023-04-13T02:02:17.983Z,6.46
2023-04-13T02:04:45.799Z,6.49
2023-04-13T02:07:13.766Z,6.65
2023-04-13T02:09:41.561Z,6.60
2023-04-13T02:12:09.667Z,6.39
2023-04-13T02:14:37.592Z,6.45
2023-04-13T02:17:05.742Z,6.45
2023-04-13T02:19:35.088Z,6.60
2023-04-13T02:22:02.827Z,6.55
2023-04-13T02:24:33.024Z,6.54
2023-04-13T02:27:02.080Z,6.52
2023-04-13T02:29:30.110Z,6.51
2023-04-13T02:31:58.064Z,6.46
2023-04-13T02:34:27.462Z,6.47
2023-04-13T02:36:56.847Z,6.56
2023-04-13T02:39:24.929Z,6.55
2023-04-13T02:41:52.674Z,6.44
2023-04-13T02:44:20.923Z,6.52
2023-04-13T02:46:48.730Z,6.44
2023-04-13T02:49:16.591Z,6.34
2023-04-13T02:51:44.351Z,6.42
2023-04-13T02:54:13.543Z,6.38
2023-04-13T02:56:41.286Z,6.53
2023-04-13T02:59:09.100Z,6.57
2023-04-13T03:01:37.194Z,6.43
2023-04-13T03:04:05.260Z,6.52
2023-04-13T03:06:33.419Z,6.53
2023-04-13T03:09:01.661Z,6.38
2023-04-13T03:11:30.809Z,6.34
2023-04-13T03:14:01.330Z,6.33
2023-04-13T03:16:29.633Z,6.36
2023-04-13T03:18:58.110Z,6.42
2023-04-13T03:21:25.900Z,6.32
2023-04-13T03:23:53.735Z,6.24
2023-04-13T03:26:21.819Z,6.31
2023-04-13T03:28:50.987Z,6.17
2023-04-13T03:31:19.101Z,6.22
2023-04-13T03:33:46.968Z,6.28
2023-04-13T03:36:15.623Z,6.47
2023-04-13T03:38:43.426Z,6.55
2023-04-13T03:41:11.638Z,6.53
2023-04-13T03:43:39.578Z,6.54
2023-04-13T03:46:09.690Z,6.53
2023-04-13T03:48:37.577Z,6.42
2023-04-13T03:51:05.475Z,6.45
2023-04-13T03:53:34.234Z,6.37
2023-04-13T03:56:02.211Z,6.37
2023-04-13T03:58:29.982Z,6.28
2023-04-13T04:00:57.977Z,6.33
2023-04-13T04:03:27.254Z,6.29
2023-04-13T04:05:55.150Z,6.22
2023-04-13T04:08:22.918Z,6.05
2023-04-13T04:10:50.630Z,5.99
2023-04-13T04:13:18.353Z,5.89
2023-04-13T04:15:46.137Z,5.86
2023-04-13T04:18:13.913Z,5.88
2023-04-13T04:20:43.103Z,5.95
2023-04-13T04:23:12.522Z,5.84
2023-04-13T04:25:40.709Z,5.78
2023-04-13T04:28:08.883Z,5.54
2023-04-13T04:30:37.130Z,5.46
2023-04-13T04:33:04.953Z,5.47
2023-04-13T04:35:35.910Z,5.41
2023-04-13T04:38:05.611Z,5.38
2023-04-13T04:40:35.710Z,5.26
2023-04-13T04:43:04.923Z,5.38
2023-04-13T04:45:33.100Z,5.38
2023-04-13T04:48:03.190Z,5.54
2023-04-13T04:50:31.112Z,5.54
2023-04-13T04:52:59.036Z,5.50
2023-04-13T04:55:28.164Z,5.52
2023-04-13T04:57:56.144Z,5.43
2023-04-13T05:00:26.390Z,5.42
2023-04-13T05:02:54.579Z,5.31
2023-04-13T05:05:22.639Z,5.53
2023-04-13T05:07:50.693Z,5.57
2023-04-13T05:10:18.447Z,5.56
2023-04-13T05:12:47.821Z,5.64
2023-04-13T05:15:15.641Z,5.78
2023-04-13T05:17:46.912Z,5.68
2023-04-13T05:20:14.856Z,5.71
2023-04-13T05:22:43.696Z,5.64
2023-04-13T05:25:12.233Z,5.84
2023-04-13T05:27:40.028Z,5.90
2023-04-13T05:30:10.596Z,6.02
2023-04-13T05:32:38.396Z,6.11
2023-04-13T05:35:07.817Z,6.17
2023-04-13T05:37:35.622Z,6.23
2023-04-13T05:40:08.314Z,6.33
2023-04-13T05:42:36.298Z,6.40
2023-04-13T05:45:09.639Z,6.44
2023-04-13T05:47:40.076Z,6.65
2023-04-13T05:50:09.735Z,6.57
2023-04-13T05:52:37.463Z,6.69
2023-04-13T05:55:06.865Z,6.82
2023-04-13T05:57:35.079Z,6.88
2023-04-13T06:00:03.307Z,6.77
2023-04-13T06:02:32.142Z,6.83
2023-04-13T06:05:02.022Z,6.69
2023-04-13T06:07:29.875Z,6.80
2023-04-13T06:09:57.623Z,6.66
2023-04-13T06:12:25.860Z,6.55
2023-04-13T06:14:53.597Z,6.62
2023-04-13T06:17:21.486Z,6.59
2023-04-13T06:19:49.304Z,6.73
2023-04-13T06:22:18.476Z,6.65
2023-04-13T06:24:46.206Z,6.62
2023-04-13T06:27:14.173Z,6.55
2023-04-13T06:29:42.400Z,6.69
2023-04-13T06:32:10.214Z,6.82
2023-04-13T06:34:37.926Z,6.77
2023-04-13T06:37:06.022Z,7.06
2023-04-13T06:39:37.791Z,7.49
2023-04-13T06:42:06.444Z,7.60
2023-04-13T06:44:34.228Z,8.05
2023-04-13T06:47:01.997Z,8.18
2023-04-13T06:49:30.360Z,8.18
2023-04-13T06:51:58.133Z,7.98
2023-04-13T06:54:26.065Z,7.84
2023-04-13T06:56:55.164Z,7.75
2023-04-13T06:59:22.852Z,7.39
2023-04-13T07:01:51.236Z,7.26
2023-04-13T07:04:19.679Z,7.55
2023-04-13T07:06:47.890Z,7.62
2023-04-13T07:09:16.193Z,7.71
2023-04-13T07:11:43.906Z,7.83
2023-04-13T07:14:12.982Z,8.31
2023-04-13T07:16:41.100Z,8.42
2023-04-13T07:19:08.866Z,8.32
2023-04-13T07:21:36.643Z,8.77
2023-04-13T07:24:04.828Z,8.94
2023-04-13T07:26:32.822Z,9.15
2023-04-13T07:29:00.651Z,9.65
2023-04-13T07:31:30.387Z,9.62
2023-04-13T07:33:58.145Z,9.59
2023-04-13T07:36:26.469Z,9.82
2023-04-13T07:38:54.255Z,10.08
2023-04-13T07:41:22.649Z,9.50
2023-04-13T07:43:51.252Z,9.52
2023-04-13T07:46:20.496Z,9.70
2023-04-13T07:48:49.606Z,9.92
2023-04-13T07:51:18.023Z,9.32
2023-04-13T07:53:45.890Z,9.25
2023-04-13T07:56:13.589Z,9.08
2023-04-13T07:58:41.715Z,8.94
2023-04-13T08:01:09.655Z,8.90
2023-04-13T08:03:38.122Z,9.27
2023-04-13T08:06:09.697Z,9.48
2023-04-13T08:08:37.487Z,9.56
2023-04-13T08:11:05.460Z,9.17
2023-04-13T08:13:33.277Z,9.27
2023-04-13T08:16:01.050Z,9.27
2023-04-13T08:18:29.800Z,9.09
2023-04-13T08:20:57.727Z,9.30
2023-04-13T08:23:27.535Z,9.19
2023-04-13T08:25:55.512Z,9.63
2023-04-13T08:28:23.283Z,9.70
2023-04-13T08:30:51.085Z,9.61
2023-04-13T08:33:18.790Z,9.63
2023-04-13T08:35:46.499Z,9.97
2023-04-13T08:38:14.267Z,9.84
2023-04-13T08:40:43.488Z,9.60
2023-04-13T08:43:11.522Z,9.41
2023-04-13T08:45:42.265Z,9.40
2023-04-13T08:48:11.802Z,9.53
2023-04-13T08:50:40.076Z,8.94
2023-04-13T08:53:08.271Z,9.04
2023-04-13T08:55:36.021Z,8.72
2023-04-13T08:58:06.510Z,8.98
2023-04-13T09:00:34.258Z,9.17
2023-04-13T09:03:09.051Z,9.10
2023-04-13T09:05:41.313Z,9.32
2023-04-13T09:08:11.828Z,8.93
2023-04-13T09:10:40.642Z,9.02
2023-04-13T09:13:09.930Z,9.22
2023-04-13T09:15:37.727Z,8.92
2023-04-13T09:18:09.990Z,8.84
2023-04-13T09:20:38.487Z,8.81
2023-04-13T09:23:14.696Z,8.49
2023-04-13T09:25:42.617Z,8.90
2023-04-13T09:28:18.765Z,9.68
2023-04-13T09:30:47.132Z,9.71
2023-04-13T09:33:16.963Z,10.71
2023-04-13T09:35:44.678Z,10.97
2023-04-13T09:38:15.472Z,10.96
2023-04-13T09:40:49.987Z,11.78
2023-04-13T09:43:19.515Z,12.10
2023-04-13T09:45:47.406Z,12.45
2023-04-13T09:48:20.647Z,12.61
2023-04-13T09:50:59.488Z,12.88
2023-04-13T09:53:29.263Z,12.78
2023-04-13T09:56:01.135Z,12.44
2023-04-13T09:58:31.215Z,11.48
2023-04-13T10:00:59.482Z,11.32
2023-04-13T10:03:28.515Z,9.43
2023-04-13T10:06:00.481Z,10.10
2023-04-13T10:11:02.405Z,10.30
2023-04-13T10:13:36.808Z,10.86
2023-04-13T10:16:28.176Z,10.45
2023-04-13T10:19:01.791Z,10.58
2023-04-13T10:21:33.756Z,13.35
2023-04-13T10:24:02.022Z,15.23
2023-04-13T10:26:33.564Z,14.58
2023-04-13T10:29:03.801Z,13.67
2023-04-13T10:31:39.522Z,13.82
2023-04-13T10:34:07.663Z,14.51
2023-04-13T10:36:39.868Z,14.19
2023-04-13T10:39:08.346Z,13.65
2023-04-13T10:41:36.613Z,13.68
2023-04-13T10:44:07.085Z,13.01
2023-04-13T10:46:35.670Z,12.23
2023-04-13T10:49:05.279Z,12.87
2023-04-13T10:51:42.566Z,12.98
2023-04-13T10:54:11.909Z,13.11
2023-04-13T10:56:40.183Z,13.18
2023-04-13T10:59:09.574Z,12.98
2023-04-13T11:01:41.290Z,13.63
2023-04-13T11:04:13.842Z,13.06
2023-04-13T11:06:44.897Z,13.26
2023-04-13T11:09:16.000Z,12.58
2023-04-13T11:11:44.438Z,12.75
2023-04-13T11:14:22.034Z,12.34
2023-04-13T11:16:50.362Z,11.12
2023-04-13T11:19:18.947Z,10.89
2023-04-13T11:21:48.874Z,11.02
2023-04-13T11:24:25.665Z,11.14
2023-04-13T11:26:54.353Z,11.34
2023-04-13T11:29:23.501Z,11.53
2023-04-13T11:31:51.995Z,12.16
2023-04-13T11:34:28.679Z,13.93
2023-04-13T11:37:05.687Z,14.22
2023-04-13T11:39:36.334Z,14.19
2023-04-13T11:42:08.105Z,15.75
2023-04-13T11:44:38.752Z,16.13
2023-04-13T11:47:08.684Z,17.09
2023-04-13T11:49:36.882Z,16.08
2023-04-13T11:52:04.870Z,18.49
2023-04-13T11:54:33.390Z,16.35
2023-04-13T11:57:01.852Z,16.65
2023-04-13T11:59:29.869Z,16.89
2023-04-13T12:02:03.826Z,16.64
2023-04-13T12:04:38.891Z,15.60
2023-04-13T12:07:14.031Z,14.54
2023-04-13T12:09:56.409Z,14.57
2023-04-13T12:15:13.779Z,11.98
2023-04-13T12:17:49.955Z,11.58
2023-04-13T12:20:20.710Z,11.19
2023-04-13T12:22:57.614Z,10.34
2023-04-13T12:28:01.703Z,9.87
2023-04-13T12:30:29.550Z,9.23
2023-04-13T12:32:58.710Z,9.24
2023-04-13T12:35:26.579Z,8.95
2023-04-13T12:37:54.385Z,9.39
2023-04-13T12:40:22.528Z,9.98
2023-04-13T12:42:50.809Z,11.36
2023-04-13T12:45:18.533Z,11.82
2023-04-13T12:47:46.287Z,12.87
2023-04-13T12:50:15.670Z,13.17
2023-04-13T12:52:44.485Z,12.83
2023-04-13T12:55:12.318Z,12.94
2023-04-13T12:57:40.564Z,13.59
2023-04-13T13:00:10.710Z,12.44
2023-04-13T13:02:38.744Z,11.25
2023-04-13T13:05:09.322Z,12.70
2023-04-13T13:07:38.618Z,13.69
2023-04-13T13:10:14.919Z,14.11
2023-04-13T13:12:49.879Z,13.96
2023-04-13T13:15:18.011Z,12.19
2023-04-13T13:17:45.824Z,12.24
2023-04-13T13:20:14.534Z,12.01
2023-04-13T13:22:44.180Z,11.52
2023-04-13T13:25:12.117Z,12.17
2023-04-13T13:28:10.478Z,12.00
2023-04-13T13:30:28.081Z,12.66
2023-04-13T13:32:56.028Z,12.87
2023-04-13T13:35:24.025Z,12.51
2023-04-13T13:37:53.156Z,12.85
2023-04-13T13:40:21.239Z,13.27
2023-04-13T13:42:52.380Z,13.02
2023-04-13T13:45:21.712Z,12.81
2023-04-13T13:47:53.710Z,13.56
2023-04-13T13:50:22.384Z,13.17
2023-04-13T13:53:01.709Z,13.63
2023-04-13T13:55:32.843Z,13.84
2023-04-13T13:58:00.713Z,14.19
2023-04-13T14:00:28.554Z,13.76
2023-04-13T14:02:56.516Z,13.18
2023-04-13T14:05:24.576Z,13.45
2023-04-13T14:07:52.380Z,13.61
2023-04-13T14:10:20.448Z,12.64
2023-04-13T14:12:50.928Z,13.64
2023-04-13T14:15:19.534Z,13.98
2023-04-13T14:17:55.909Z,13.91
2023-04-13T14:20:35.258Z,15.09
2023-04-13T14:23:03.611Z,16.04
2023-04-13T14:25:31.574Z,16.53
2023-04-13T14:28:00.807Z,13.97
2023-04-13T14:30:28.949Z,13.25
2023-04-13T14:32:57.324Z,12.81
2023-04-13T14:35:25.134Z,13.00
2023-04-13T14:37:53.430Z,11.89
2023-04-13T14:40:22.569Z,11.35
2023-04-13T14:42:53.008Z,11.50
2023-04-13T14:45:22.236Z,11.15
2023-04-13T14:47:50.149Z,10.63
2023-04-13T14:50:18.683Z,10.90
2023-04-13T14:52:47.085Z,10.52
2023-04-13T14:55:15.532Z,10.65
2023-04-13T14:57:43.378Z,10.56
2023-04-13T15:00:15.808Z,9.32
2023-04-13T15:02:45.040Z,8.77
2023-04-13T15:05:13.132Z,8.60
2023-04-13T15:07:41.000Z,8.07
2023-04-13T15:10:09.915Z,7.39
2023-04-13T15:12:37.768Z,6.76
2023-04-13T15:15:06.983Z,6.61
2023-04-13T15:17:34.812Z,6.48
2023-04-13T15:20:07.723Z,6.24
2023-04-13T15:22:36.857Z,6.14
2023-04-13T15:25:05.031Z,6.19
2023-04-13T15:27:32.794Z,6.45
2023-04-13T15:30:03.080Z,6.62
2023-04-13T15:32:31.409Z,6.72
2023-04-13T15:34:59.214Z,6.55
2023-04-13T15:37:28.397Z,6.83
2023-04-13T15:39:56.196Z,6.88
2023-04-13T15:42:23.943Z,6.64
2023-04-13T15:44:51.756Z,6.52
2023-04-13T15:47:19.567Z,6.55
2023-04-13T15:49:47.277Z,6.50
2023-04-13T15:52:15.006Z,6.52
2023-04-13T15:54:44.045Z,6.69
2023-04-13T15:57:12.342Z,6.51
2023-04-13T15:59:40.138Z,6.48
2023-04-13T16:02:08.513Z,6.16
2023-04-13T16:04:37.059Z,5.96
2023-04-13T16:07:12.937Z,5.97
2023-04-13T16:09:44.947Z,5.55
2023-04-13T16:12:12.797Z,5.49
2023-04-13T16:14:41.914Z,5.71
2023-04-13T16:17:10.415Z,5.75
2023-04-13T16:19:39.796Z,5.62
2023-04-13T16:22:09.811Z,5.86
2023-04-13T16:24:38.370Z,5.98
2023-04-13T16:27:08.635Z,5.85
2023-04-13T16:29:36.579Z,5.89
2023-04-13T16:32:04.327Z,5.89
2023-04-13T16:34:32.121Z,6.09
2023-04-13T16:36:59.925Z,6.00
2023-04-13T16:39:27.777Z,5.73
2023-04-13T16:41:55.539Z,5.76
2023-04-13T16:44:25.035Z,5.72
2023-04-13T16:46:52.920Z,5.96
2023-04-13T16:49:20.767Z,5.97
2023-04-13T16:51:49.279Z,5.97
2023-04-13T16:54:18.154Z,5.95
2023-04-13T16:56:46.224Z,6.05
2023-04-13T16:59:14.174Z,6.07
2023-04-13T17:01:43.306Z,6.27
2023-04-13T17:04:11.922Z,6.35
2023-04-13T17:06:40.196Z,6.25
2023-04-13T17:09:08.200Z,6.31
2023-04-13T17:11:36.189Z,6.60
2023-04-13T17:14:03.914Z,5.99
2023-04-13T17:16:31.825Z,6.07
2023-04-13T17:19:01.568Z,6.06
2023-04-13T17:21:29.982Z,5.85
2023-04-13T17:23:57.733Z,5.89
2023-04-13T17:26:26.099Z,5.70
2023-04-13T17:28:53.863Z,5.69
2023-04-13T17:31:22.001Z,6.16
2023-04-13T17:33:51.118Z,6.44
2023-04-13T17:36:22.000Z,6.02
2023-04-13T17:38:49.843Z,5.86
2023-04-13T17:41:18.156Z,6.23
2023-04-13T17:43:45.916Z,5.92
2023-04-13T17:46:13.725Z,5.48
2023-04-13T17:48:42.060Z,5.50
2023-04-13T17:51:11.609Z,5.68
2023-04-13T17:53:40.930Z,5.72
2023-04-13T17:56:14.683Z,5.76
2023-04-13T17:58:42.511Z,5.72
2023-04-13T18:01:11.422Z,5.47
2023-04-13T18:03:40.007Z,5.36
2023-04-13T18:06:08.073Z,5.51
2023-04-13T18:08:36.003Z,5.36
2023-04-13T18:11:05.259Z,5.47
2023-04-13T18:13:34.305Z,5.43
2023-04-13T18:16:02.415Z,5.49
2023-04-13T18:18:30.752Z,5.64
2023-04-13T18:20:58.529Z,5.69
2023-04-13T18:23:26.295Z,5.67
2023-04-13T18:25:54.040Z,5.57
2023-04-13T18:28:23.229Z,5.40
2023-04-13T18:30:51.014Z,5.33
2023-04-13T18:33:18.868Z,5.15
2023-04-13T18:35:46.970Z,5.15
2023-04-13T18:38:14.734Z,4.98
2023-04-13T18:40:42.540Z,5.19
2023-04-13T18:43:10.485Z,5.23
2023-04-13T18:45:39.740Z,5.49
2023-04-13T18:48:09.452Z,5.40
2023-04-13T18:50:37.909Z,5.41
2023-04-13T18:53:05.980Z,5.36
2023-04-13T18:55:33.907Z,5.24
2023-04-13T18:58:01.745Z,5.25
2023-04-13T19:00:29.773Z,5.44
2023-04-13T19:02:59.072Z,5.21
2023-04-13T19:05:27.815Z,5.21
2023-04-13T19:07:58.737Z,5.37
2023-04-13T19:10:28.088Z,5.36
2023-04-13T19:12:56.536Z,5.30
2023-04-13T19:15:25.095Z,5.36
2023-04-13T19:17:53.414Z,5.28
2023-04-13T19:20:25.074Z,5.34
2023-04-13T19:22:52.761Z,5.13
2023-04-13T19:25:20.779Z,5.18
2023-04-13T19:27:50.097Z,5.06
2023-04-13T19:30:19.505Z,5.08
2023-04-13T19:32:48.930Z,4.97
2023-04-13T19:35:16.930Z,4.99
2023-04-13T19:37:46.184Z,4.95
2023-04-13T19:40:15.214Z,4.94
2023-04-13T19:42:44.476Z,4.86
2023-04-13T19:45:13.290Z,4.75
2023-04-13T19:47:42.285Z,4.64
2023-04-13T19:50:12.464Z,4.67
2023-04-13T19:52:41.325Z,4.91
2023-04-13T19:55:12.059Z,4.81
2023-04-13T19:57:42.945Z,4.85
2023-04-13T20:00:19.014Z,4.89
2023-04-13T20:02:48.001Z,4.98
2023-04-13T20:05:16.002Z,4.88
2023-04-13T20:07:43.830Z,5.03
2023-04-13T20:10:13.545Z,5.03
2023-04-13T20:12:41.299Z,5.09
2023-04-13T20:15:09.434Z,5.16
2023-04-13T20:17:37.241Z,5.07
2023-04-13T20:20:07.352Z,5.01
2023-04-13T20:22:35.350Z,4.97
2023-04-13T20:25:03.476Z,5.01
2023-04-13T20:27:34.259Z,5.09
2023-04-13T20:30:02.159Z,4.88
2023-04-13T20:32:29.988Z,4.82
2023-04-13T20:34:57.822Z,4.82
2023-04-13T20:37:25.608Z,4.85
2023-04-13T20:39:54.078Z,4.87
2023-04-13T20:42:22.413Z,4.85
2023-04-13T20:44:57.437Z,4.88
2023-04-13T20:47:26.599Z,4.75
2023-04-13T20:49:57.271Z,4.87
2023-04-13T20:52:25.852Z,4.55
2023-04-13T20:54:54.565Z,4.46
2023-04-13T20:57:22.470Z,4.68
2023-04-13T20:59:52.690Z,4.85
2023-04-13T21:02:21.219Z,4.68
2023-04-13T21:04:49.318Z,4.56
2023-04-13T21:07:17.143Z,4.79
2023-04-13T21:09:45.708Z,4.76
2023-04-13T21:12:13.503Z,4.67
2023-04-13T21:14:41.298Z,4.73
2023-04-13T21:17:10.521Z,4.71
2023-04-13T21:19:38.296Z,4.56
2023-04-13T21:22:06.115Z,4.58
2023-04-13T21:24:33.847Z,4.62
2023-04-13T21:27:02.411Z,4.82
2023-04-13T21:29:30.133Z,4.73
2023-04-13T21:31:58.178Z,4.73
2023-04-13T21:34:27.373Z,4.68
2023-04-13T21:36:55.486Z,4.89
2023-04-13T21:39:23.465Z,4.63
2023-04-13T21:41:51.258Z,4.53
2023-04-13T21:44:29.301Z,4.41
2023-04-13T21:46:58.456Z,4.39
2023-04-13T21:49:28.164Z,4.22
2023-04-13T21:51:56.024Z,4.36
2023-04-13T21:54:23.821Z,4.35
2023-04-13T21:56:51.737Z,4.22
2023-04-13T21:59:19.572Z,3.96
2023-04-13T22:01:47.658Z,3.99
2023-04-13T22:04:15.822Z,4.19
2023-04-13T22:06:45.000Z,3.98
2023-04-13T22:09:13.441Z,4.01
2023-04-13T22:11:41.415Z,3.80
2023-04-13T22:14:09.272Z,3.64
2023-04-13T22:16:37.087Z,3.59
2023-04-13T22:19:04.930Z,3.72
2023-04-13T22:21:35.438Z,3.70
2023-04-13T22:24:04.876Z,3.88
2023-04-13T22:26:32.665Z,3.75
2023-04-13T22:29:00.673Z,3.65
2023-04-13T22:31:28.684Z,3.59
2023-04-13T22:33:57.113Z,3.60
2023-04-13T22:36:25.337Z,3.53
2023-04-13T22:38:54.443Z,3.52
2023-04-13T22:41:23.642Z,3.74
2023-04-13T22:43:51.346Z,3.87
2023-04-13T22:46:19.471Z,3.94
2023-04-13T22:48:48.205Z,3.79
2023-04-13T22:51:16.309Z,3.70
2023-04-13T22:53:44.210Z,3.63
2023-04-13T22:56:11.913Z,3.69
2023-04-13T22:58:40.970Z,3.81
2023-04-13T23:01:08.686Z,3.67
2023-04-13T23:03:36.621Z,3.70
2023-04-13T23:06:05.927Z,3.65
2023-04-13T23:08:33.658Z,3.55
2023-04-13T23:11:09.251Z,3.71
2023-04-13T23:13:37.162Z,3.80
2023-04-13T23:16:07.188Z,3.61
2023-04-13T23:18:35.099Z,3.75
2023-04-13T23:21:10.556Z,3.83
2023-04-13T23:23:38.831Z,3.73
2023-04-13T23:26:07.349Z,3.99
2023-04-13T23:28:35.198Z,3.90
2023-04-13T23:31:09.025Z,3.86
2023-04-13T23:33:36.943Z,3.92
2023-04-13T23:36:05.367Z,3.90
2023-04-13T23:38:33.825Z,3.90
2023-04-13T23:41:01.652Z,3.95
2023-04-13T23:43:29.419Z,3.91
2023-04-13T23:45:58.913Z,3.97
2023-04-13T23:48:28.265Z,3.97
2023-04-13T23:50:57.297Z,3.97
2023-04-13T23:53:25.153Z,3.89
2023-04-13T23:55:52.824Z,3.80
2023-04-13T23:58:20.510Z,3.81
